sensor_id;sensor_type;location;lat;lon;timestamp;pressure;altitude;pressure_sealevel;temperature;humidity
84815;BME280;75050;53.190;5.562;2024-01-15T00:01:46;100212.59;;;6.11;79.27
84815;BME280;75050;53.190;5.562;2024-01-15T00:04:11;100199.75;;;6.10;79.46
84815;BME280;75050;53.190;5.562;2024-01-15T00:06:39;100194.66;;;6.08;79.46
84815;BME280;75050;53.190;5.562;2024-01-15T00:09:04;100183.94;;;5.99;79.41
84815;BME280;75050;53.190;5.562;2024-01-15T00:11:32;100200.59;;;6.10;79.59
84815;BME280;75050;53.190;5.562;2024-01-15T00:14:41;100198.84;;;6.11;79.45
84815;BME280;75050;53.190;5.562;2024-01-15T00:17:07;100180.81;;;6.09;79.47
84815;BME280;75050;53.190;5.562;2024-01-15T00:19:32;100183.34;;;6.11;79.42
84815;BME280;75050;53.190;5.562;2024-01-15T00:22:05;100183.41;;;6.09;79.54
84815;BME280;75050;53.190;5.562;2024-01-15T00:24:30;100173.28;;;6.05;79.66
84815;BME280;75050;53.190;5.562;2024-01-15T00:27:13;100167.47;;;6.01;79.72
84815;BME280;75050;53.190;5.562;2024-01-15T00:29:38;100177.41;;;6.09;79.56
84815;BME280;75050;53.190;5.562;2024-01-15T00:32:04;100177.56;;;6.06;79.44
84815;BME280;75050;53.190;5.562;2024-01-15T00:34:29;100172.25;;;6.09;79.29
84815;BME280;75050;53.190;5.562;2024-01-15T00:40:16;100185.16;;;6.09;79.47
84815;BME280;75050;53.190;5.562;2024-01-15T00:42:41;100193.81;;;6.08;79.75
84815;BME280;75050;53.190;5.562;2024-01-15T00:45:07;100164.41;;;5.93;79.64
84815;BME280;75050;53.190;5.562;2024-01-15T00:47:34;100192.25;;;6.05;79.64
84815;BME280;75050;53.190;5.562;2024-01-15T00:50:00;100194.91;;;6.04;79.49
84815;BME280;75050;53.190;5.562;2024-01-15T00:52:25;100182.97;;;6.01;79.73
84815;BME280;75050;53.190;5.562;2024-01-15T00:54:50;100174.91;;;6.07;79.76
84815;BME280;75050;53.190;5.562;2024-01-15T00:57:31;100146.84;;;6.00;79.45
84815;BME280;75050;53.190;5.562;2024-01-15T00:59:56;100150.81;;;6.07;79.48
84815;BME280;75050;53.190;5.562;2024-01-15T01:02:22;100128.75;;;6.00;79.68
84815;BME280;75050;53.190;5.562;2024-01-15T01:04:54;100146.53;;;6.06;80.12
84815;BME280;75050;53.190;5.562;2024-01-15T01:07:19;100135.44;;;6.04;79.71
84815;BME280;75050;53.190;5.562;2024-01-15T01:16:29;100147.75;;;5.99;79.68
84815;BME280;75050;53.190;5.562;2024-01-15T01:19:01;100146.09;;;5.98;79.69
84815;BME280;75050;53.190;5.562;2024-01-15T01:21:27;100162.50;;;5.97;79.49
84815;BME280;75050;53.190;5.562;2024-01-15T01:24:01;100135.38;;;5.88;79.56
84815;BME280;75050;53.190;5.562;2024-01-15T01:26:26;100146.91;;;5.98;79.52
84815;BME280;75050;53.190;5.562;2024-01-15T01:28:52;100135.91;;;5.95;79.73
84815;BME280;75050;53.190;5.562;2024-01-15T01:31:44;100152.78;;;6.02;79.67
84815;BME280;75050;53.190;5.562;2024-01-15T01:34:10;100133.00;;;6.01;79.63
84815;BME280;75050;53.190;5.562;2024-01-15T01:36:36;100123.72;;;5.97;79.44
84815;BME280;75050;53.190;5.562;2024-01-15T01:39:01;100100.25;;;5.84;79.54
84815;BME280;75050;53.190;5.562;2024-01-15T01:41:28;100052.81;;;5.69;79.56
84815;BME280;75050;53.190;5.562;2024-01-15T01:43:54;100080.66;;;5.80;79.91
84815;BME280;75050;53.190;5.562;2024-01-15T01:46:20;100109.84;;;5.99;79.51
84815;BME280;75050;53.190;5.562;2024-01-15T01:48:45;100056.25;;;5.69;79.61
84815;BME280;75050;53.190;5.562;2024-01-15T01:51:21;100097.13;;;5.95;79.68
84815;BME280;75050;53.190;5.562;2024-01-15T01:53:47;100092.34;;;5.87;80.08
84815;BME280;75050;53.190;5.562;2024-01-15T01:56:14;100055.41;;;5.69;79.34
84815;BME280;75050;53.190;5.562;2024-01-15T01:58:39;100052.06;;;5.67;79.55
84815;BME280;75050;53.190;5.562;2024-01-15T02:01:13;100091.34;;;5.90;79.53
84815;BME280;75050;53.190;5.562;2024-01-15T02:03:40;100052.91;;;5.67;79.59
84815;BME280;75050;53.190;5.562;2024-01-15T02:06:05;100104.38;;;5.88;79.21
84815;BME280;75050;53.190;5.562;2024-01-15T02:08:31;100123.72;;;5.97;79.49
84815;BME280;75050;53.190;5.562;2024-01-15T02:10:58;100120.25;;;5.98;79.71
84815;BME280;75050;53.190;5.562;2024-01-15T02:13:23;100071.47;;;5.75;79.33
84815;BME280;75050;53.190;5.562;2024-01-15T02:16:23;100116.81;;;5.97;79.73
84815;BME280;75050;53.190;5.562;2024-01-15T02:18:48;100103.22;;;5.94;79.49
84815;BME280;75050;53.190;5.562;2024-01-15T02:21:14;100110.13;;;5.93;79.76
84815;BME280;75050;53.190;5.562;2024-01-15T02:23:39;100130.66;;;5.96;79.55
84815;BME280;75050;53.190;5.562;2024-01-15T02:26:05;100128.06;;;5.96;79.76
84815;BME280;75050;53.190;5.562;2024-01-15T02:28:33;100128.22;;;5.93;79.72
84815;BME280;75050;53.190;5.562;2024-01-15T02:30:59;100122.47;;;5.88;79.71
84815;BME280;75050;53.190;5.562;2024-01-15T02:36:47;100129.16;;;5.92;79.80
84815;BME280;75050;53.190;5.562;2024-01-15T02:39:13;100129.16;;;5.92;79.87
84815;BME280;75050;53.190;5.562;2024-01-15T02:45:00;100114.53;;;5.91;79.83
84815;BME280;75050;53.190;5.562;2024-01-15T02:47:26;100106.72;;;5.93;79.27
84815;BME280;75050;53.190;5.562;2024-01-15T02:49:51;100098.53;;;5.85;79.36
84815;BME280;75050;53.190;5.562;2024-01-15T02:52:16;100095.63;;;5.91;79.67
84815;BME280;75050;53.190;5.562;2024-01-15T02:54:42;100101.53;;;5.93;79.76
84815;BME280;75050;53.190;5.562;2024-01-15T02:57:20;100093.09;;;5.89;79.56
84815;BME280;75050;53.190;5.562;2024-01-15T02:59:45;100081.66;;;5.78;79.64
84815;BME280;75050;53.190;5.562;2024-01-15T03:02:10;100101.09;;;5.85;79.67
84815;BME280;75050;53.190;5.562;2024-01-15T03:04:36;100090.16;;;5.80;79.75
84815;BME280;75050;53.190;5.562;2024-01-15T03:07:01;100106.03;;;5.89;79.72
84815;BME280;75050;53.190;5.562;2024-01-15T03:09:27;100115.38;;;5.92;79.59
84815;BME280;75050;53.190;5.562;2024-01-15T03:11:54;100117.28;;;5.88;79.64
84815;BME280;75050;53.190;5.562;2024-01-15T03:14:20;100122.47;;;5.88;79.92
84815;BME280;75050;53.190;5.562;2024-01-15T03:17:16;100134.38;;;5.91;79.76
84815;BME280;75050;53.190;5.562;2024-01-15T03:19:41;100117.69;;;5.81;79.61
84815;BME280;75050;53.190;5.562;2024-01-15T03:22:07;100123.28;;;5.89;79.66
84815;BME280;75050;53.190;5.562;2024-01-15T03:25:07;100132.69;;;5.90;79.74
84815;BME280;75050;53.190;5.562;2024-01-15T03:27:33;100143.22;;;5.87;79.68
84815;BME280;75050;53.190;5.562;2024-01-15T03:30:05;100127.34;;;5.77;79.85
84815;BME280;75050;53.190;5.562;2024-01-15T03:32:56;100139.63;;;5.89;79.71
84815;BME280;75050;53.190;5.562;2024-01-15T03:35:21;100132.13;;;5.85;79.87
84815;BME280;75050;53.190;5.562;2024-01-15T03:37:47;100143.97;;;5.89;79.64
84815;BME280;75050;53.190;5.562;2024-01-15T03:43:34;100117.75;;;5.79;79.81
84815;BME280;75050;53.190;5.562;2024-01-15T03:46:06;100130.59;;;5.81;79.56
84815;BME280;75050;53.190;5.562;2024-01-15T03:48:32;100116.81;;;5.80;79.83
84815;BME280;75050;53.190;5.562;2024-01-15T03:54:21;100113.03;;;5.87;79.73
84815;BME280;75050;53.190;5.562;2024-01-15T03:56:47;100097.97;;;5.78;79.84
84815;BME280;75050;53.190;5.562;2024-01-15T03:59:12;100112.19;;;5.87;79.81
84815;BME280;75050;53.190;5.562;2024-01-15T04:01:37;100107.84;;;5.87;80.05
84815;BME280;75050;53.190;5.562;2024-01-15T04:04:03;100112.19;;;5.87;79.55
84815;BME280;75050;53.190;5.562;2024-01-15T04:09:50;100099.34;;;5.85;79.68
84815;BME280;75050;53.190;5.562;2024-01-15T04:12:15;100099.34;;;5.85;79.82
84815;BME280;75050;53.190;5.562;2024-01-15T04:14:40;100077.56;;;5.74;79.68
84815;BME280;75050;53.190;5.562;2024-01-15T04:17:06;100097.00;;;5.81;79.71
84815;BME280;75050;53.190;5.562;2024-01-15T04:19:31;100098.59;;;5.83;79.76
84815;BME280;75050;53.190;5.562;2024-01-15T04:21:57;100094.19;;;5.85;79.83
84815;BME280;75050;53.190;5.562;2024-01-15T04:24:22;100080.34;;;5.86;80.08
84815;BME280;75050;53.190;5.562;2024-01-15T04:26:47;100056.09;;;5.72;79.84
84815;BME280;75050;53.190;5.562;2024-01-15T04:29:13;100064.16;;;5.83;79.82
84815;BME280;75050;53.190;5.562;2024-01-15T04:31:38;100059.16;;;5.80;79.78
84815;BME280;75050;53.190;5.562;2024-01-15T04:34:22;100067.50;;;5.85;79.74
84815;BME280;75050;53.190;5.562;2024-01-15T04:36:48;100059.00;;;5.83;79.80
84815;BME280;75050;53.190;5.562;2024-01-15T04:39:13;100071.00;;;5.84;79.69
84815;BME280;75050;53.190;5.562;2024-01-15T04:41:39;100036.41;;;5.70;79.90
84815;BME280;75050;53.190;5.562;2024-01-15T04:44:29;100053.84;;;5.83;79.79
84815;BME280;75050;53.190;5.562;2024-01-15T04:46:54;100045.22;;;5.82;79.82
84815;BME280;75050;53.190;5.562;2024-01-15T04:49:25;100040.06;;;5.82;79.76
84815;BME280;75050;53.190;5.562;2024-01-15T04:51:55;100036.13;;;5.75;79.87
84815;BME280;75050;53.190;5.562;2024-01-15T04:54:26;100051.31;;;5.81;79.82
84815;BME280;75050;53.190;5.562;2024-01-15T04:56:51;100032.81;;;5.73;79.64
84815;BME280;75050;53.190;5.562;2024-01-15T04:59:25;100045.41;;;5.79;79.66
84815;BME280;75050;53.190;5.562;2024-01-15T05:01:50;100025.63;;;5.62;79.66
84815;BME280;75050;53.190;5.562;2024-01-15T05:04:18;100060.22;;;5.76;79.77
84815;BME280;75050;53.190;5.562;2024-01-15T05:06:43;100069.63;;;5.77;79.85
84815;BME280;75050;53.190;5.562;2024-01-15T05:09:08;100072.06;;;5.80;80.03
84815;BME280;75050;53.190;5.562;2024-01-15T05:12:00;100059.97;;;5.80;79.92
84815;BME280;75050;53.190;5.562;2024-01-15T05:14:25;100056.56;;;5.80;79.80
84815;BME280;75050;53.190;5.562;2024-01-15T05:16:51;100050.94;;;5.72;79.79
84815;BME280;75050;53.190;5.562;2024-01-15T05:19:16;100049.75;;;5.79;79.70
84815;BME280;75050;53.190;5.562;2024-01-15T05:21:42;100039.63;;;5.74;79.90
84815;BME280;75050;53.190;5.562;2024-01-15T05:24:08;100032.09;;;5.70;79.87
84815;BME280;75050;53.190;5.562;2024-01-15T05:26:57;100038.56;;;5.78;79.76
84815;BME280;75050;53.190;5.562;2024-01-15T05:29:22;100021.00;;;5.68;79.69
84815;BME280;75050;53.190;5.562;2024-01-15T05:31:48;100022.72;;;5.68;79.74
84815;BME280;75050;53.190;5.562;2024-01-15T05:34:14;100022.91;;;5.65;80.07
84815;BME280;75050;53.190;5.562;2024-01-15T05:36:41;100005.28;;;5.56;79.79
84815;BME280;75050;53.190;5.562;2024-01-15T05:39:06;100037.78;;;5.76;79.56
84815;BME280;75050;53.190;5.562;2024-01-15T05:41:32;100001.63;;;5.60;79.62
84815;BME280;75050;53.190;5.562;2024-01-15T05:43:57;100032.63;;;5.76;79.95
84815;BME280;75050;53.190;5.562;2024-01-15T05:49:50;100029.28;;;5.74;79.69
84815;BME280;75050;53.190;5.562;2024-01-15T05:52:15;100039.63;;;5.74;79.66
84815;BME280;75050;53.190;5.562;2024-01-15T05:54:41;100043.97;;;5.74;79.73
84815;BME280;75050;53.190;5.562;2024-01-15T05:57:14;100034.06;;;5.65;79.84
84815;BME280;75050;53.190;5.562;2024-01-15T05:59:39;100023.88;;;5.62;79.65
84815;BME280;75050;53.190;5.562;2024-01-15T06:02:05;100032.84;;;5.72;79.69
84815;BME280;75050;53.190;5.562;2024-01-15T06:04:30;100003.22;;;5.62;79.59
84815;BME280;75050;53.190;5.562;2024-01-15T06:07:01;100030.22;;;5.73;79.73
84815;BME280;75050;53.190;5.562;2024-01-15T06:09:27;100011.72;;;5.64;79.54
84815;BME280;75050;53.190;5.562;2024-01-15T06:11:53;100019.06;;;5.71;79.64
84815;BME280;75050;53.190;5.562;2024-01-15T06:14:23;100026.00;;;5.71;79.72
84815;BME280;75050;53.190;5.562;2024-01-15T06:16:48;100035.38;;;5.73;79.47
84815;BME280;75050;53.190;5.562;2024-01-15T06:19:14;100022.50;;;5.72;79.66
84815;BME280;75050;53.190;5.562;2024-01-15T06:21:59;99969.97;;;5.39;79.64
84815;BME280;75050;53.190;5.562;2024-01-15T06:24:30;99982.25;;;5.51;79.47
84815;BME280;75050;53.190;5.562;2024-01-15T06:26:56;99964.06;;;5.37;79.51
84815;BME280;75050;53.190;5.562;2024-01-15T06:29:22;99964.06;;;5.37;79.52
84815;BME280;75050;53.190;5.562;2024-01-15T06:32:26;100006.25;;;5.70;79.82
84815;BME280;75050;53.190;5.562;2024-01-15T06:34:51;100007.97;;;5.70;79.52
84815;BME280;75050;53.190;5.562;2024-01-15T06:37:18;99958.91;;;5.37;79.56
84815;BME280;75050;53.190;5.562;2024-01-15T06:39:45;99985.69;;;5.52;79.38
84815;BME280;75050;53.190;5.562;2024-01-15T06:42:15;99997.28;;;5.60;79.58
84815;BME280;75050;53.190;5.562;2024-01-15T06:44:40;100001.56;;;5.61;79.76
84815;BME280;75050;53.190;5.562;2024-01-15T06:47:06;100008.56;;;5.59;79.56
84815;BME280;75050;53.190;5.562;2024-01-15T06:49:31;99990.09;;;5.50;79.85
84815;BME280;75050;53.190;5.562;2024-01-15T06:52:14;100019.38;;;5.66;79.76
84815;BME280;75050;53.190;5.562;2024-01-15T06:54:39;99999.88;;;5.60;79.50
84815;BME280;75050;53.190;5.562;2024-01-15T06:57:05;100015.91;;;5.67;79.71
84815;BME280;75050;53.190;5.562;2024-01-15T06:59:48;100005.72;;;5.64;79.74
84815;BME280;75050;53.190;5.562;2024-01-15T07:02:14;100010.19;;;5.60;79.59
84815;BME280;75050;53.190;5.562;2024-01-15T07:04:39;100015.16;;;5.65;79.72
84815;BME280;75050;53.190;5.562;2024-01-15T07:07:05;100023.88;;;5.62;79.54
84815;BME280;75050;53.190;5.562;2024-01-15T07:09:31;100006.94;;;5.57;79.48
84815;BME280;75050;53.190;5.562;2024-01-15T07:12:27;100032.38;;;5.64;79.74
84815;BME280;75050;53.190;5.562;2024-01-15T07:14:52;100014.41;;;5.63;79.44
84815;BME280;75050;53.190;5.562;2024-01-15T07:17:18;100008.09;;;5.51;79.62
84815;BME280;75050;53.190;5.562;2024-01-15T07:19:43;100020.47;;;5.62;79.59
84815;BME280;75050;53.190;5.562;2024-01-15T07:22:27;100028.22;;;5.62;79.85
84815;BME280;75050;53.190;5.562;2024-01-15T07:24:53;100023.38;;;5.56;79.84
84815;BME280;75050;53.190;5.562;2024-01-15T07:27:18;100029.03;;;5.62;79.66
84815;BME280;75050;53.190;5.562;2024-01-15T07:29:44;100033.38;;;5.62;79.58
84815;BME280;75050;53.190;5.562;2024-01-15T07:32:09;100013.09;;;5.54;79.39
84815;BME280;75050;53.190;5.562;2024-01-15T07:34:35;100003.31;;;5.61;79.55
84815;BME280;75050;53.190;5.562;2024-01-15T07:37:00;100011.88;;;5.61;79.78
84815;BME280;75050;53.190;5.562;2024-01-15T07:39:26;100009.31;;;5.61;79.52
84815;BME280;75050;53.190;5.562;2024-01-15T07:41:58;99973.47;;;5.38;79.52
84815;BME280;75050;53.190;5.562;2024-01-15T07:44:23;100001.56;;;5.61;79.47
84815;BME280;75050;53.190;5.562;2024-01-15T07:46:49;99990.00;;;5.51;79.52
84815;BME280;75050;53.190;5.562;2024-01-15T07:52:25;99987.81;;;5.61;79.71
84815;BME280;75050;53.190;5.562;2024-01-15T07:54:50;99977.88;;;5.53;79.53
84815;BME280;75050;53.190;5.562;2024-01-15T07:57:17;100001.63;;;5.60;79.68
84815;BME280;75050;53.190;5.562;2024-01-15T07:59:43;99958.28;;;5.32;79.44
84815;BME280;75050;53.190;5.562;2024-01-15T08:02:08;99993.66;;;5.47;79.69
84815;BME280;75050;53.190;5.562;2024-01-15T08:04:37;99954.66;;;5.20;79.30
84815;BME280;75050;53.190;5.562;2024-01-15T08:07:02;100017.19;;;5.58;79.47
84815;BME280;75050;53.190;5.562;2024-01-15T08:09:44;99988.44;;;5.49;79.42
84815;BME280;75050;53.190;5.562;2024-01-15T08:12:12;100012.03;;;5.58;79.60
84815;BME280;75050;53.190;5.562;2024-01-15T08:15:05;100012.97;;;5.57;79.63
84815;BME280;75050;53.190;5.562;2024-01-15T08:17:31;100006.94;;;5.57;79.51
84815;BME280;75050;53.190;5.562;2024-01-15T08:19:57;100005.34;;;5.54;79.25
84815;BME280;75050;53.190;5.562;2024-01-15T08:22:23;100002.03;;;5.52;79.64
84815;BME280;75050;53.190;5.562;2024-01-15T08:24:48;100015.69;;;5.54;79.41
84815;BME280;75050;53.190;5.562;2024-01-15T08:27:20;99999.44;;;5.52;79.46
84815;BME280;75050;53.190;5.562;2024-01-15T08:29:45;100007.03;;;5.55;79.69
84815;BME280;75050;53.190;5.562;2024-01-15T08:32:10;99991.06;;;5.47;79.36
84815;BME280;75050;53.190;5.562;2024-01-15T08:34:45;99988.50;;;5.47;79.43
84815;BME280;75050;53.190;5.562;2024-01-15T08:37:12;99993.38;;;5.53;79.50
84815;BME280;75050;53.190;5.562;2024-01-15T08:39:38;100000.13;;;5.56;79.50
84815;BME280;75050;53.190;5.562;2024-01-15T08:42:04;99974.41;;;5.37;79.35
84815;BME280;75050;53.190;5.562;2024-01-15T08:44:30;99998.44;;;5.55;79.34
84815;BME280;75050;53.190;5.562;2024-01-15T08:46:55;99982.75;;;5.42;79.39
84815;BME280;75050;53.190;5.562;2024-01-15T08:52:44;99994.19;;;5.54;79.55
84815;BME280;75050;53.190;5.562;2024-01-15T08:55:11;99997.59;;;5.54;79.29
84815;BME280;75050;53.190;5.562;2024-01-15T08:57:38;100012.22;;;5.55;79.27
84815;BME280;75050;53.190;5.562;2024-01-15T09:00:08;99996.03;;;5.52;79.42
84815;BME280;75050;53.190;5.562;2024-01-15T09:02:34;100000.94;;;5.56;79.37
84815;BME280;75050;53.190;5.562;2024-01-15T09:05:08;99993.66;;;5.47;79.52
84815;BME280;75050;53.190;5.562;2024-01-15T09:07:33;99997.53;;;5.56;79.33
84815;BME280;75050;53.190;5.562;2024-01-15T09:10:07;99986.66;;;5.49;79.35
84815;BME280;75050;53.190;5.562;2024-01-15T09:12:33;100017.38;;;5.55;79.53
84815;BME280;75050;53.190;5.562;2024-01-15T09:15:05;100008.69;;;5.56;79.28
84815;BME280;75050;53.190;5.562;2024-01-15T09:17:32;99997.94;;;5.48;79.60
84815;BME280;75050;53.190;5.562;2024-01-15T09:19:57;100013.03;;;5.56;79.53
84815;BME280;75050;53.190;5.562;2024-01-15T09:22:23;100006.19;;;5.55;79.31
84815;BME280;75050;53.190;5.562;2024-01-15T09:24:48;99988.50;;;5.47;79.55
84815;BME280;75050;53.190;5.562;2024-01-15T09:27:14;100002.16;;;5.49;79.40
84815;BME280;75050;53.190;5.562;2024-01-15T09:29:40;100008.75;;;5.55;79.39
84815;BME280;75050;53.190;5.562;2024-01-15T09:32:07;100007.19;;;5.52;79.33
84815;BME280;75050;53.190;5.562;2024-01-15T09:34:34;100011.34;;;5.55;79.35
84815;BME280;75050;53.190;5.562;2024-01-15T09:36:59;100009.00;;;5.50;79.30
84815;BME280;75050;53.190;5.562;2024-01-15T09:39:30;100003.91;;;5.49;79.39
84815;BME280;75050;53.190;5.562;2024-01-15T09:41:57;100027.72;;;5.55;79.65
84815;BME280;75050;53.190;5.562;2024-01-15T09:44:23;100016.00;;;5.48;79.44
84815;BME280;75050;53.190;5.562;2024-01-15T09:46:50;100021.84;;;5.52;79.55
84815;BME280;75050;53.190;5.562;2024-01-15T09:49:18;100017.97;;;5.43;79.30
84815;BME280;75050;53.190;5.562;2024-01-15T09:51:44;100020.56;;;5.43;79.44
84815;BME280;75050;53.190;5.562;2024-01-15T09:54:10;100005.09;;;5.27;79.45
84815;BME280;75050;53.190;5.562;2024-01-15T09:59:44;100070.69;;;5.56;79.45
84815;BME280;75050;53.190;5.562;2024-01-15T10:02:18;100074.28;;;5.54;79.37
84815;BME280;75050;53.190;5.562;2024-01-15T10:04:45;100046.09;;;5.32;79.32
84815;BME280;75050;53.190;5.562;2024-01-15T10:07:30;100072.44;;;5.56;79.53
84815;BME280;75050;53.190;5.562;2024-01-15T10:10:19;100005.41;;;5.21;79.37
84815;BME280;75050;53.190;5.562;2024-01-15T10:17:52;100069.19;;;5.52;79.18
84815;BME280;75050;53.190;5.562;2024-01-15T10:20:18;100065.69;;;5.53;79.48
84815;BME280;75050;53.190;5.562;2024-01-15T10:22:44;100059.91;;;5.48;79.59
84815;BME280;75050;53.190;5.562;2024-01-15T10:25:14;100062.13;;;5.56;79.45
84815;BME280;75050;53.190;5.562;2024-01-15T10:27:43;100063.00;;;5.55;79.61
84815;BME280;75050;53.190;5.562;2024-01-15T10:30:11;100032.78;;;5.40;79.36
84815;BME280;75050;53.190;5.562;2024-01-15T10:32:39;100068.94;;;5.57;79.60
84815;BME280;75050;53.190;5.562;2024-01-15T10:35:07;100024.97;;;5.41;79.52
84815;BME280;75050;53.190;5.562;2024-01-15T10:37:33;100037.88;;;5.41;79.48
84815;BME280;75050;53.190;5.562;2024-01-15T10:40:02;100042.22;;;5.41;79.26
84815;BME280;75050;53.190;5.562;2024-01-15T10:42:30;100067.28;;;5.56;79.49
84815;BME280;75050;53.190;5.562;2024-01-15T10:44:56;100018.22;;;5.22;79.73
84815;BME280;75050;53.190;5.562;2024-01-15T10:47:22;100040.03;;;5.33;79.33
84815;BME280;75050;53.190;5.562;2024-01-15T10:49:48;100051.72;;;5.40;79.70
84815;BME280;75050;53.190;5.562;2024-01-15T10:52:18;100060.59;;;5.52;79.71
84815;BME280;75050;53.190;5.562;2024-01-15T10:54:43;100070.88;;;5.53;79.65
84815;BME280;75050;53.190;5.562;2024-01-15T10:57:09;100017.38;;;5.22;79.46
84815;BME280;75050;53.190;5.562;2024-01-15T10:59:36;100089.78;;;5.54;79.65
84815;BME280;75050;53.190;5.562;2024-01-15T11:02:02;100026.19;;;5.18;79.50
84815;BME280;75050;53.190;5.562;2024-01-15T11:04:27;100081.25;;;5.52;79.50
84815;BME280;75050;53.190;5.562;2024-01-15T11:06:53;100033.94;;;5.34;79.70
84815;BME280;75050;53.190;5.562;2024-01-15T11:09:20;100068.16;;;5.55;79.61
84815;BME280;75050;53.190;5.562;2024-01-15T11:11:47;100054.97;;;5.44;79.76
84815;BME280;75050;53.190;5.562;2024-01-15T11:18:03;100081.25;;;5.52;79.67
84815;BME280;75050;53.190;5.562;2024-01-15T11:20:30;100084.22;;;5.44;79.56
84815;BME280;75050;53.190;5.562;2024-01-15T11:22:57;100100.16;;;5.52;79.47
84815;BME280;75050;53.190;5.562;2024-01-15T11:25:48;100093.25;;;5.53;79.65
84815;BME280;75050;53.190;5.562;2024-01-15T11:28:48;100102.06;;;5.49;79.70
84815;BME280;75050;53.190;5.562;2024-01-15T11:31:14;100102.44;;;5.41;79.58
84815;BME280;75050;53.190;5.562;2024-01-15T11:33:49;100120.06;;;5.50;79.76
84815;BME280;75050;53.190;5.562;2024-01-15T11:36:14;100126.75;;;5.54;79.49
84815;BME280;75050;53.190;5.562;2024-01-15T11:38:45;100120.16;;;5.49;79.48
84815;BME280;75050;53.190;5.562;2024-01-15T11:41:14;100129.28;;;5.56;79.35
84815;BME280;75050;53.190;5.562;2024-01-15T11:43:43;100118.25;;;5.52;79.88
84815;BME280;75050;53.190;5.562;2024-01-15T11:46:12;100122.41;;;5.55;79.67
84815;BME280;75050;53.190;5.562;2024-01-15T11:48:44;100124.94;;;5.56;79.50
84815;BME280;75050;53.190;5.562;2024-01-15T11:51:12;100113.31;;;5.48;79.52
84815;BME280;75050;53.190;5.562;2024-01-15T11:53:47;100118.88;;;5.57;79.73
84815;BME280;75050;53.190;5.562;2024-01-15T11:56:17;100131.78;;;5.57;79.68
84815;BME280;75050;53.190;5.562;2024-01-15T11:58:43;100117.34;;;5.53;79.70
84815;BME280;75050;53.190;5.562;2024-01-15T12:01:16;100132.63;;;5.58;79.85
84815;BME280;75050;53.190;5.562;2024-01-15T12:03:41;100126.75;;;5.54;79.55
84815;BME280;75050;53.190;5.562;2024-01-15T12:06:16;100120.00;;;5.52;79.72
84815;BME280;75050;53.190;5.562;2024-01-15T12:08:41;100110.63;;;5.49;79.61
84815;BME280;75050;53.190;5.562;2024-01-15T12:11:26;100127.31;;;5.61;79.57
84815;BME280;75050;53.190;5.562;2024-01-15T12:13:53;100126.44;;;5.60;79.63
84815;BME280;75050;53.190;5.562;2024-01-15T12:16:20;100129.88;;;5.61;79.74
84815;BME280;75050;53.190;5.562;2024-01-15T12:18:47;100129.97;;;5.59;79.41
84815;BME280;75050;53.190;5.562;2024-01-15T12:21:13;100121.22;;;5.62;79.48
84815;BME280;75050;53.190;5.562;2024-01-15T12:23:39;100110.19;;;5.58;79.63
84815;BME280;75050;53.190;5.562;2024-01-15T12:26:04;100117.88;;;5.60;79.41
84815;BME280;75050;53.190;5.562;2024-01-15T12:28:30;100126.38;;;5.62;79.89
84815;BME280;75050;53.190;5.562;2024-01-15T12:30:56;100129.03;;;5.60;80.08
84815;BME280;75050;53.190;5.562;2024-01-15T12:33:21;100126.63;;;5.57;79.85
84815;BME280;75050;53.190;5.562;2024-01-15T12:35:47;100155.47;;;5.65;79.49
84815;BME280;75050;53.190;5.562;2024-01-15T12:38:13;100149.41;;;5.66;79.53
84815;BME280;75050;53.190;5.562;2024-01-15T12:40:39;100133.38;;;5.60;80.03
84815;BME280;75050;53.190;5.562;2024-01-15T12:43:07;100139.38;;;5.60;79.73
84815;BME280;75050;53.190;5.562;2024-01-15T12:45:33;100134.69;;;5.68;79.61
84815;BME280;75050;53.190;5.562;2024-01-15T12:48:00;100139.84;;;5.68;79.69
84815;BME280;75050;53.190;5.562;2024-01-15T12:50:26;100136.56;;;5.65;79.88
84815;BME280;75050;53.190;5.562;2024-01-15T12:52:51;100138.16;;;5.67;79.85
84815;BME280;75050;53.190;5.562;2024-01-15T12:55:17;100134.56;;;5.70;79.44
84815;BME280;75050;53.190;5.562;2024-01-15T13:04:52;100143.25;;;5.69;79.71
84815;BME280;75050;53.190;5.562;2024-01-15T13:07:19;100146.66;;;5.69;79.60
84815;BME280;75050;53.190;5.562;2024-01-15T13:09:44;100136.72;;;5.62;79.63
84815;BME280;75050;53.190;5.562;2024-01-15T13:12:10;100159.50;;;5.71;79.40
84815;BME280;75050;53.190;5.562;2024-01-15T13:14:54;100156.09;;;5.70;79.85
84815;BME280;75050;53.190;5.562;2024-01-15T13:20:35;100153.97;;;5.61;79.67
84815;BME280;75050;53.190;5.562;2024-01-15T13:23:02;100170.69;;;5.71;79.80
84815;BME280;75050;53.190;5.562;2024-01-15T13:25:29;100193.03;;;5.72;79.78
84815;BME280;75050;53.190;5.562;2024-01-15T13:27:54;100199.88;;;5.73;80.00
84815;BME280;75050;53.190;5.562;2024-01-15T13:30:26;100195.75;;;5.69;79.75
84815;BME280;75050;53.190;5.562;2024-01-15T13:32:51;100193.81;;;5.74;79.69
84815;BME280;75050;53.190;5.562;2024-01-15T13:35:17;100189.50;;;5.74;80.14
84815;BME280;75050;53.190;5.562;2024-01-15T13:37:43;100170.91;;;5.67;79.55
84815;BME280;75050;53.190;5.562;2024-01-15T13:40:37;100192.00;;;5.76;79.68
84815;BME280;75050;53.190;5.562;2024-01-15T13:43:03;100186.97;;;5.73;79.48
84815;BME280;75050;53.190;5.562;2024-01-15T13:45:33;100184.53;;;5.70;79.64
84815;BME280;75050;53.190;5.562;2024-01-15T13:48:00;100180.25;;;5.69;79.87
84815;BME280;75050;53.190;5.562;2024-01-15T13:50:26;100174.31;;;5.67;79.77
84815;BME280;75050;53.190;5.562;2024-01-15T13:52:52;100179.97;;;5.75;79.72
84815;BME280;75050;53.190;5.562;2024-01-15T13:55:18;100169.84;;;5.71;79.77
84815;BME280;75050;53.190;5.562;2024-01-15T13:57:43;100186.00;;;5.75;79.65
84815;BME280;75050;53.190;5.562;2024-01-15T14:00:09;100192.00;;;5.76;79.66
84815;BME280;75050;53.190;5.562;2024-01-15T14:02:37;100182.84;;;5.69;79.47
84815;BME280;75050;53.190;5.562;2024-01-15T14:05:02;100181.94;;;5.70;79.75
84815;BME280;75050;53.190;5.562;2024-01-15T14:07:28;100164.75;;;5.69;79.77
84815;BME280;75050;53.190;5.562;2024-01-15T14:09:53;100186.97;;;5.73;79.64